sensor_id;sensor_type;location;lat;lon;timestamp;temperature;humidity
45837;DHT22;31548;51.420;-0.040;2022-10-17T00:00:42;16.60;99.90
45837;DHT22;31548;51.420;-0.040;2022-10-17T00:03:09;16.60;99.90
45837;DHT22;31548;51.420;-0.040;2022-10-17T00:05:41;16.60;99.90
45837;DHT22;31548;51.420;-0.040;2022-10-17T00:08:11;16.60;99.90
45837;DHT22;31548;51.420;-0.040;2022-10-17T00:10:39;16.60;99.90
45837;DHT22;31548;51.420;-0.040;2022-10-17T00:13:07;16.60;99.90
45837;DHT22;31548;51.420;-0.040;2022-10-17T00:15:35;16.50;99.90
45837;DHT22;31548;51.420;-0.040;2022-10-17T00:18:03;16.50;99.90
45837;DHT22;31548;51.420;-0.040;2022-10-17T00:20:30;16.60;99.90
45837;DHT22;31548;51.420;-0.040;2022-10-17T00:22:58;16.60;99.90
45837;DHT22;31548;51.420;-0.040;2022-10-17T00:25:26;16.60;99.90
45837;DHT22;31548;51.420;-0.040;2022-10-17T00:27:53;16.70;99.90
45837;DHT22;31548;51.420;-0.040;2022-10-17T00:30:21;16.70;99.90
45837;DHT22;31548;51.420;-0.040;2022-10-17T00:32:48;16.70;99.90
45837;DHT22;31548;51.420;-0.040;2022-10-17T00:35:15;16.70;99.90
45837;DHT22;31548;51.420;-0.040;2022-10-17T00:37:42;16.70;99.90
45837;DHT22;31548;51.420;-0.040;2022-10-17T00:40:10;16.70;99.90
45837;DHT22;31548;51.420;-0.040;2022-10-17T00:42:38;16.70;99.90
45837;DHT22;31548;51.420;-0.040;2022-10-17T00:47:44;16.60;99.90
45837;DHT22;31548;51.420;-0.040;2022-10-17T00:50:12;16.60;99.90
45837;DHT22;31548;51.420;-0.040;2022-10-17T00:52:42;16.60;99.90
45837;DHT22;31548;51.420;-0.040;2022-10-17T00:55:20;16.60;99.90
45837;DHT22;31548;51.420;-0.040;2022-10-17T00:57:48;16.50;99.90
45837;DHT22;31548;51.420;-0.040;2022-10-17T01:00:19;16.60;99.90
45837;DHT22;31548;51.420;-0.040;2022-10-17T01:02:46;16.50;99.90
45837;DHT22;31548;51.420;-0.040;2022-10-17T01:05:17;16.50;99.90
45837;DHT22;31548;51.420;-0.040;2022-10-17T01:07:45;16.50;99.90
45837;DHT22;31548;51.420;-0.040;2022-10-17T01:10:14;16.50;99.90
45837;DHT22;31548;51.420;-0.040;2022-10-17T01:13:40;16.40;99.90
45837;DHT22;31548;51.420;-0.040;2022-10-17T01:15:58;16.40;99.90
45837;DHT22;31548;51.420;-0.040;2022-10-17T01:18:42;16.30;99.90
45837;DHT22;31548;51.420;-0.040;2022-10-17T01:32:37;16.20;99.90
45837;DHT22;31548;51.420;-0.040;2022-10-17T01:35:12;16.20;99.90
45837;DHT22;31548;51.420;-0.040;2022-10-17T01:37:55;16.10;99.90
45837;DHT22;31548;51.420;-0.040;2022-10-17T01:40:29;16.10;99.90
45837;DHT22;31548;51.420;-0.040;2022-10-17T01:43:20;16.10;99.90
45837;DHT22;31548;51.420;-0.040;2022-10-17T01:45:58;16.10;99.90
45837;DHT22;31548;51.420;-0.040;2022-10-17T01:48:35;16.00;99.90
45837;DHT22;31548;51.420;-0.040;2022-10-17T01:51:26;16.00;99.90
45837;DHT22;31548;51.420;-0.040;2022-10-17T01:54:02;16.00;99.90
45837;DHT22;31548;51.420;-0.040;2022-10-17T01:56:32;16.00;99.90
45837;DHT22;31548;51.420;-0.040;2022-10-17T01:59:05;16.00;99.90
45837;DHT22;31548;51.420;-0.040;2022-10-17T02:01:36;16.00;99.90
45837;DHT22;31548;51.420;-0.040;2022-10-17T02:04:05;16.00;99.90
45837;DHT22;31548;51.420;-0.040;2022-10-17T02:06:34;16.00;99.90
45837;DHT22;31548;51.420;-0.040;2022-10-17T02:09:23;16.10;99.90
45837;DHT22;31548;51.420;-0.040;2022-10-17T02:12:25;16.10;99.90
45837;DHT22;31548;51.420;-0.040;2022-10-17T02:18:19;16.10;99.90
45837;DHT22;31548;51.420;-0.040;2022-10-17T02:21:08;16.10;99.90
45837;DHT22;31548;51.420;-0.040;2022-10-17T02:29:20;16.10;99.90
45837;DHT22;31548;51.420;-0.040;2022-10-17T02:32:01;16.10;99.90
45837;DHT22;31548;51.420;-0.040;2022-10-17T02:34:38;16.10;99.90
45837;DHT22;31548;51.420;-0.040;2022-10-17T02:37:09;16.10;99.90
45837;DHT22;31548;51.420;-0.040;2022-10-17T02:39:39;16.10;99.90
45837;DHT22;31548;51.420;-0.040;2022-10-17T02:42:09;16.10;99.90
45837;DHT22;31548;51.420;-0.040;2022-10-17T02:44:41;16.10;99.90
45837;DHT22;31548;51.420;-0.040;2022-10-17T02:47:25;16.10;99.90
45837;DHT22;31548;51.420;-0.040;2022-10-17T02:49:55;16.10;99.90
45837;DHT22;31548;51.420;-0.040;2022-10-17T02:52:29;16.10;99.90
45837;DHT22;31548;51.420;-0.040;2022-10-17T02:55:15;16.10;99.90
45837;DHT22;31548;51.420;-0.040;2022-10-17T02:58:09;16.10;99.90
45837;DHT22;31548;51.420;-0.040;2022-10-17T03:00:38;16.10;99.90
45837;DHT22;31548;51.420;-0.040;2022-10-17T03:03:24;16.10;99.90
45837;DHT22;31548;51.420;-0.040;2022-10-17T03:05:52;16.10;99.90
45837;DHT22;31548;51.420;-0.040;2022-10-17T03:08:23;16.10;99.90
45837;DHT22;31548;51.420;-0.040;2022-10-17T03:10:50;16.10;99.90
45837;DHT22;31548;51.420;-0.040;2022-10-17T03:13:18;16.00;99.90
45837;DHT22;31548;51.420;-0.040;2022-10-17T03:15:45;16.00;99.90
45837;DHT22;31548;51.420;-0.040;2022-10-17T03:18:13;16.00;99.90
45837;DHT22;31548;51.420;-0.040;2022-10-17T03:20:40;16.00;99.90
45837;DHT22;31548;51.420;-0.040;2022-10-17T03:23:07;16.00;99.90
45837;DHT22;31548;51.420;-0.040;2022-10-17T03:25:35;16.00;99.90
45837;DHT22;31548;51.420;-0.040;2022-10-17T03:28:03;16.00;99.90
45837;DHT22;31548;51.420;-0.040;2022-10-17T03:30:32;16.00;99.90
45837;DHT22;31548;51.420;-0.040;2022-10-17T03:32:59;16.00;99.90
45837;DHT22;31548;51.420;-0.040;2022-10-17T03:35:26;15.90;99.90
45837;DHT22;31548;51.420;-0.040;2022-10-17T03:37:54;15.90;99.90
45837;DHT22;31548;51.420;-0.040;2022-10-17T03:40:24;15.90;99.90
45837;DHT22;31548;51.420;-0.040;2022-10-17T03:42:52;15.80;99.90
45837;DHT22;31548;51.420;-0.040;2022-10-17T03:45:19;15.80;99.90
45837;DHT22;31548;51.420;-0.040;2022-10-17T03:47:47;15.90;99.90
45837;DHT22;31548;51.420;-0.040;2022-10-17T03:50:14;15.90;99.90
45837;DHT22;31548;51.420;-0.040;2022-10-17T03:52:46;15.90;99.90
45837;DHT22;31548;51.420;-0.040;2022-10-17T03:55:15;15.90;99.90
45837;DHT22;31548;51.420;-0.040;2022-10-17T03:57:42;15.90;99.90
45837;DHT22;31548;51.420;-0.040;2022-10-17T04:00:13;15.90;99.90
45837;DHT22;31548;51.420;-0.040;2022-10-17T04:02:40;15.90;99.90
45837;DHT22;31548;51.420;-0.040;2022-10-17T04:05:13;15.90;99.90
45837;DHT22;31548;51.420;-0.040;2022-10-17T04:07:41;16.00;99.90
45837;DHT22;31548;51.420;-0.040;2022-10-17T04:10:09;16.00;99.90
45837;DHT22;31548;51.420;-0.040;2022-10-17T04:12:37;16.00;99.90
45837;DHT22;31548;51.420;-0.040;2022-10-17T04:15:05;16.00;99.90
45837;DHT22;31548;51.420;-0.040;2022-10-17T04:17:34;16.00;99.90
45837;DHT22;31548;51.420;-0.040;2022-10-17T04:20:05;16.00;99.90
45837;DHT22;31548;51.420;-0.040;2022-10-17T04:22:33;16.00;99.90
45837;DHT22;31548;51.420;-0.040;2022-10-17T04:25:01;16.00;99.90
45837;DHT22;31548;51.420;-0.040;2022-10-17T04:27:37;16.00;99.90
45837;DHT22;31548;51.420;-0.040;2022-10-17T04:30:06;16.00;99.90
45837;DHT22;31548;51.420;-0.040;2022-10-17T04:32:37;16.00;99.90
45837;DHT22;31548;51.420;-0.040;2022-10-17T04:35:10;16.00;99.90
45837;DHT22;31548;51.420;-0.040;2022-10-17T04:37:41;15.90;99.90
45837;DHT22;31548;51.420;-0.040;2022-10-17T04:40:15;15.90;99.90
45837;DHT22;31548;51.420;-0.040;2022-10-17T04:42:43;15.90;99.90
45837;DHT22;31548;51.420;-0.040;2022-10-17T04:45:14;15.90;99.90
45837;DHT22;31548;51.420;-0.040;2022-10-17T04:47:42;15.90;99.90
45837;DHT22;31548;51.420;-0.040;2022-10-17T04:50:09;15.90;99.90
45837;DHT22;31548;51.420;-0.040;2022-10-17T04:52:38;15.90;99.90
45837;DHT22;31548;51.420;-0.040;2022-10-17T04:55:08;15.90;99.90
45837;DHT22;31548;51.420;-0.040;2022-10-17T04:57:35;15.90;99.90
45837;DHT22;31548;51.420;-0.040;2022-10-17T05:00:17;15.90;99.90
45837;DHT22;31548;51.420;-0.040;2022-10-17T05:02:50;15.90;99.90
45837;DHT22;31548;51.420;-0.040;2022-10-17T05:05:19;15.90;99.90
45837;DHT22;31548;51.420;-0.040;2022-10-17T05:07:49;15.90;99.90
45837;DHT22;31548;51.420;-0.040;2022-10-17T05:10:19;15.90;99.90
45837;DHT22;31548;51.420;-0.040;2022-10-17T05:12:49;15.90;99.90
45837;DHT22;31548;51.420;-0.040;2022-10-17T05:15:18;15.90;99.90
45837;DHT22;31548;51.420;-0.040;2022-10-17T05:17:45;15.90;99.90
45837;DHT22;31548;51.420;-0.040;2022-10-17T05:20:12;15.90;99.90
45837;DHT22;31548;51.420;-0.040;2022-10-17T05:22:40;15.90;99.90
45837;DHT22;31548;51.420;-0.040;2022-10-17T05:25:10;15.90;99.90
45837;DHT22;31548;51.420;-0.040;2022-10-17T05:27:37;15.90;99.90
45837;DHT22;31548;51.420;-0.040;2022-10-17T05:30:05;15.90;99.90
45837;DHT22;31548;51.420;-0.040;2022-10-17T05:32:35;15.90;99.90
45837;DHT22;31548;51.420;-0.040;2022-10-17T05:35:02;15.90;99.90
45837;DHT22;31548;51.420;-0.040;2022-10-17T05:37:31;16.00;99.90
45837;DHT22;31548;51.420;-0.040;2022-10-17T05:40:01;16.00;99.90
45837;DHT22;31548;51.420;-0.040;2022-10-17T05:42:30;16.00;99.90
45837;DHT22;31548;51.420;-0.040;2022-10-17T05:44:58;16.00;99.90
45837;DHT22;31548;51.420;-0.040;2022-10-17T05:47:25;16.00;99.90
45837;DHT22;31548;51.420;-0.040;2022-10-17T05:49:53;16.00;99.90
45837;DHT22;31548;51.420;-0.040;2022-10-17T05:52:26;16.00;99.90
45837;DHT22;31548;51.420;-0.040;2022-10-17T05:55:24;16.00;99.90
45837;DHT22;31548;51.420;-0.040;2022-10-17T05:57:51;15.90;99.90
45837;DHT22;31548;51.420;-0.040;2022-10-17T06:00:21;15.90;99.90
45837;DHT22;31548;51.420;-0.040;2022-10-17T06:02:55;15.90;99.90
45837;DHT22;31548;51.420;-0.040;2022-10-17T06:05:23;15.90;99.90
45837;DHT22;31548;51.420;-0.040;2022-10-17T06:07:50;15.90;99.90
45837;DHT22;31548;51.420;-0.040;2022-10-17T06:10:27;15.90;99.90
45837;DHT22;31548;51.420;-0.040;2022-10-17T06:12:55;15.90;99.90
45837;DHT22;31548;51.420;-0.040;2022-10-17T06:15:24;15.80;99.90
45837;DHT22;31548;51.420;-0.040;2022-10-17T06:17:59;15.80;99.90
45837;DHT22;31548;51.420;-0.040;2022-10-17T06:20:26;15.70;99.90
45837;DHT22;31548;51.420;-0.040;2022-10-17T06:22:53;15.70;99.90
45837;DHT22;31548;51.420;-0.040;2022-10-17T06:25:34;15.70;99.90
45837;DHT22;31548;51.420;-0.040;2022-10-17T06:28:02;15.70;99.90
45837;DHT22;31548;51.420;-0.040;2022-10-17T06:30:29;15.70;99.90
45837;DHT22;31548;51.420;-0.040;2022-10-17T06:32:57;15.60;99.90
45837;DHT22;31548;51.420;-0.040;2022-10-17T06:35:24;15.60;99.90
45837;DHT22;31548;51.420;-0.040;2022-10-17T06:37:52;15.60;99.90
45837;DHT22;31548;51.420;-0.040;2022-10-17T06:40:20;15.60;99.90
45837;DHT22;31548;51.420;-0.040;2022-10-17T06:42:47;15.60;99.90
45837;DHT22;31548;51.420;-0.040;2022-10-17T06:45:34;15.50;99.90
45837;DHT22;31548;51.420;-0.040;2022-10-17T06:48:36;15.50;99.90
45837;DHT22;31548;51.420;-0.040;2022-10-17T06:51:12;15.50;99.90
45837;DHT22;31548;51.420;-0.040;2022-10-17T06:53:47;15.50;99.90
45837;DHT22;31548;51.420;-0.040;2022-10-17T06:56:38;15.50;99.90
45837;DHT22;31548;51.420;-0.040;2022-10-17T06:59:29;15.40;99.90
45837;DHT22;31548;51.420;-0.040;2022-10-17T07:02:09;15.50;99.90
45837;DHT22;31548;51.420;-0.040;2022-10-17T07:04:37;15.50;99.90
45837;DHT22;31548;51.420;-0.040;2022-10-17T07:07:05;15.50;99.90
45837;DHT22;31548;51.420;-0.040;2022-10-17T07:09:33;15.40;99.90
45837;DHT22;31548;51.420;-0.040;2022-10-17T07:12:01;15.40;99.90
45837;DHT22;31548;51.420;-0.040;2022-10-17T07:14:29;15.50;99.90
45837;DHT22;31548;51.420;-0.040;2022-10-17T07:16:58;15.50;99.90
45837;DHT22;31548;51.420;-0.040;2022-10-17T07:19:28;15.50;99.90
45837;DHT22;31548;51.420;-0.040;2022-10-17T07:21:55;15.50;99.90
45837;DHT22;31548;51.420;-0.040;2022-10-17T07:24:22;15.50;99.90
45837;DHT22;31548;51.420;-0.040;2022-10-17T07:27:04;15.40;99.90
45837;DHT22;31548;51.420;-0.040;2022-10-17T07:29:31;15.50;99.90
45837;DHT22;31548;51.420;-0.040;2022-10-17T07:32:13;15.40;99.90
45837;DHT22;31548;51.420;-0.040;2022-10-17T07:34:41;15.40;99.90
45837;DHT22;31548;51.420;-0.040;2022-10-17T07:37:09;15.50;99.90
45837;DHT22;31548;51.420;-0.040;2022-10-17T07:39:41;15.40;99.90
45837;DHT22;31548;51.420;-0.040;2022-10-17T07:42:09;15.50;99.90
45837;DHT22;31548;51.420;-0.040;2022-10-17T07:44:36;15.50;99.90
45837;DHT22;31548;51.420;-0.040;2022-10-17T07:47:04;15.50;99.90
45837;DHT22;31548;51.420;-0.040;2022-10-17T07:49:31;15.50;99.90
45837;DHT22;31548;51.420;-0.040;2022-10-17T07:51:58;15.50;99.90
45837;DHT22;31548;51.420;-0.040;2022-10-17T07:54:26;15.60;99.90
45837;DHT22;31548;51.420;-0.040;2022-10-17T07:56:53;15.60;99.90
45837;DHT22;31548;51.420;-0.040;2022-10-17T07:59:20;15.60;99.90
45837;DHT22;31548;51.420;-0.040;2022-10-17T08:01:48;15.60;99.90
45837;DHT22;31548;51.420;-0.040;2022-10-17T08:04:15;15.60;99.90
45837;DHT22;31548;51.420;-0.040;2022-10-17T08:06:43;15.60;99.90
45837;DHT22;31548;51.420;-0.040;2022-10-17T08:09:10;15.60;99.90
45837;DHT22;31548;51.420;-0.040;2022-10-17T08:11:38;15.70;99.90
45837;DHT22;31548;51.420;-0.040;2022-10-17T08:14:05;15.70;99.90
45837;DHT22;31548;51.420;-0.040;2022-10-17T08:16:33;15.70;99.90
45837;DHT22;31548;51.420;-0.040;2022-10-17T08:19:00;15.60;99.90
45837;DHT22;31548;51.420;-0.040;2022-10-17T08:21:28;15.70;99.90
45837;DHT22;31548;51.420;-0.040;2022-10-17T08:23:55;15.70;99.90
45837;DHT22;31548;51.420;-0.040;2022-10-17T08:26:23;15.70;99.90
45837;DHT22;31548;51.420;-0.040;2022-10-17T08:28:50;15.70;99.90
45837;DHT22;31548;51.420;-0.040;2022-10-17T08:31:18;15.70;99.90
45837;DHT22;31548;51.420;-0.040;2022-10-17T08:33:47;15.80;99.90
45837;DHT22;31548;51.420;-0.040;2022-10-17T08:36:16;15.90;99.90
45837;DHT22;31548;51.420;-0.040;2022-10-17T08:38:44;15.90;99.90
45837;DHT22;31548;51.420;-0.040;2022-10-17T08:46:46;16.10;99.90
45837;DHT22;31548;51.420;-0.040;2022-10-17T08:49:28;16.10;99.90
45837;DHT22;31548;51.420;-0.040;2022-10-17T08:52:03;16.10;99.90
45837;DHT22;31548;51.420;-0.040;2022-10-17T08:54:44;16.10;99.90
45837;DHT22;31548;51.420;-0.040;2022-10-17T08:57:16;16.20;99.90
45837;DHT22;31548;51.420;-0.040;2022-10-17T08:59:44;16.20;99.90
45837;DHT22;31548;51.420;-0.040;2022-10-17T09:08:01;16.20;99.90
45837;DHT22;31548;51.420;-0.040;2022-10-17T09:18:39;16.40;99.90
45837;DHT22;31548;51.420;-0.040;2022-10-17T09:21:22;16.40;99.90
45837;DHT22;31548;51.420;-0.040;2022-10-17T09:23:54;16.40;99.90
45837;DHT22;31548;51.420;-0.040;2022-10-17T09:26:37;16.40;99.90
45837;DHT22;31548;51.420;-0.040;2022-10-17T09:29:22;16.50;99.90
45837;DHT22;31548;51.420;-0.040;2022-10-17T09:32:20;16.50;99.90
45837;DHT22;31548;51.420;-0.040;2022-10-17T09:34:48;16.60;99.90
45837;DHT22;31548;51.420;-0.040;2022-10-17T09:37:17;16.50;99.90
45837;DHT22;31548;51.420;-0.040;2022-10-17T09:39:48;16.50;99.90
45837;DHT22;31548;51.420;-0.040;2022-10-17T09:42:18;16.50;99.90
45837;DHT22;31548;51.420;-0.040;2022-10-17T09:45:17;16.50;99.90
45837;DHT22;31548;51.420;-0.040;2022-10-17T09:47:45;16.50;99.90
45837;DHT22;31548;51.420;-0.040;2022-10-17T09:50:26;16.50;99.90
45837;DHT22;31548;51.420;-0.040;2022-10-17T09:52:55;16.50;99.90
45837;DHT22;31548;51.420;-0.040;2022-10-17T09:58:00;16.40;99.90
45837;DHT22;31548;51.420;-0.040;2022-10-17T10:00:31;16.40;99.90
45837;DHT22;31548;51.420;-0.040;2022-10-17T10:05:38;16.40;99.90
45837;DHT22;31548;51.420;-0.040;2022-10-17T10:08:13;16.50;99.90
45837;DHT22;31548;51.420;-0.040;2022-10-17T10:10:42;16.40;99.90
45837;DHT22;31548;51.420;-0.040;2022-10-17T10:15:43;16.50;99.90
45837;DHT22;31548;51.420;-0.040;2022-10-17T10:18:31;16.50;99.90
45837;DHT22;31548;51.420;-0.040;2022-10-17T10:21:06;16.50;99.90
45837;DHT22;31548;51.420;-0.040;2022-10-17T10:23:38;16.60;99.90
45837;DHT22;31548;51.420;-0.040;2022-10-17T10:26:26;16.60;99.90
45837;DHT22;31548;51.420;-0.040;2022-10-17T10:28:59;16.70;99.90
45837;DHT22;31548;51.420;-0.040;2022-10-17T10:31:37;16.70;99.90
45837;DHT22;31548;51.420;-0.040;2022-10-17T10:39:27;16.90;99.90
45837;DHT22;31548;51.420;-0.040;2022-10-17T10:41:58;16.90;99.90
45837;DHT22;31548;51.420;-0.040;2022-10-17T10:44:28;17.00;99.90
45837;DHT22;31548;51.420;-0.040;2022-10-17T10:47:29;17.00;99.90
45837;DHT22;31548;51.420;-0.040;2022-10-17T10:56:36;17.10;99.90
45837;DHT22;31548;51.420;-0.040;2022-10-17T10:58:59;17.10;99.90
45837;DHT22;31548;51.420;-0.040;2022-10-17T11:01:52;17.10;99.90
45837;DHT22;31548;51.420;-0.040;2022-10-17T11:04:29;17.10;99.90
45837;DHT22;31548;51.420;-0.040;2022-10-17T11:07:12;17.10;99.90
45837;DHT22;31548;51.420;-0.040;2022-10-17T11:10:07;17.20;99.90
45837;DHT22;31548;51.420;-0.040;2022-10-17T11:12:59;17.20;99.90
45837;DHT22;31548;51.420;-0.040;2022-10-17T11:15:35;17.20;99.90
45837;DHT22;31548;51.420;-0.040;2022-10-17T11:18:34;17.30;99.90
45837;DHT22;31548;51.420;-0.040;2022-10-17T11:24:26;17.50;99.90
45837;DHT22;31548;51.420;-0.040;2022-10-17T11:26:48;17.60;99.90
45837;DHT22;31548;51.420;-0.040;2022-10-17T11:29:16;17.60;99.90
45837;DHT22;31548;51.420;-0.040;2022-10-17T11:31:48;17.60;99.90
45837;DHT22;31548;51.420;-0.040;2022-10-17T11:34:24;17.70;99.90
45837;DHT22;31548;51.420;-0.040;2022-10-17T11:36:58;17.70;99.90
45837;DHT22;31548;51.420;-0.040;2022-10-17T11:39:53;17.80;99.90
45837;DHT22;31548;51.420;-0.040;2022-10-17T11:43:09;17.80;99.90
45837;DHT22;31548;51.420;-0.040;2022-10-17T11:45:18;17.80;99.90
45837;DHT22;31548;51.420;-0.040;2022-10-17T11:47:58;17.80;99.90
45837;DHT22;31548;51.420;-0.040;2022-10-17T11:50:41;17.80;99.90
45837;DHT22;31548;51.420;-0.040;2022-10-17T11:53:45;17.90;99.90
45837;DHT22;31548;51.420;-0.040;2022-10-17T11:56:16;17.90;99.90
45837;DHT22;31548;51.420;-0.040;2022-10-17T12:01:45;17.80;99.90
45837;DHT22;31548;51.420;-0.040;2022-10-17T12:09:45;17.70;99.90
45837;DHT22;31548;51.420;-0.040;2022-10-17T12:12:29;17.70;99.90
45837;DHT22;31548;51.420;-0.040;2022-10-17T12:17:56;17.80;99.90
45837;DHT22;31548;51.420;-0.040;2022-10-17T12:20:36;17.80;99.90
45837;DHT22;31548;51.420;-0.040;2022-10-17T12:25:34;17.80;99.90
45837;DHT22;31548;51.420;-0.040;2022-10-17T12:28:18;17.80;99.90
45837;DHT22;31548;51.420;-0.040;2022-10-17T12:30:59;17.90;99.90
45837;DHT22;31548;51.420;-0.040;2022-10-17T12:33:31;18.00;99.90
45837;DHT22;31548;51.420;-0.040;2022-10-17T12:46:46;18.10;99.90
45837;DHT22;31548;51.420;-0.040;2022-10-17T12:52:13;18.00;99.90
45837;DHT22;31548;51.420;-0.040;2022-10-17T12:54:44;18.10;99.90
45837;DHT22;31548;51.420;-0.040;2022-10-17T13:00:36;18.20;99.90
45837;DHT22;31548;51.420;-0.040;2022-10-17T13:03:20;18.10;99.90
45837;DHT22;31548;51.420;-0.040;2022-10-17T13:05:51;18.20;99.90
45837;DHT22;31548;51.420;-0.040;2022-10-17T13:08:27;18.30;99.90
45837;DHT22;31548;51.420;-0.040;2022-10-17T13:10:56;18.40;99.90
45837;DHT22;31548;51.420;-0.040;2022-10-17T13:13:49;18.60;99.90
45837;DHT22;31548;51.420;-0.040;2022-10-17T13:16:39;18.70;99.90
45837;DHT22;31548;51.420;-0.040;2022-10-17T13:19:15;18.70;99.90
45837;DHT22;31548;51.420;-0.040;2022-10-17T13:24:28;18.80;99.90
45837;DHT22;31548;51.420;-0.040;2022-10-17T13:26:55;18.90;99.90
45837;DHT22;31548;51.420;-0.040;2022-10-17T13:29:23;18.80;99.90
45837;DHT22;31548;51.420;-0.040;2022-10-17T13:32:02;18.80;99.90
45837;DHT22;31548;51.420;-0.040;2022-10-17T13:34:32;18.80;99.90
45837;DHT22;31548;51.420;-0.040;2022-10-17T13:37:06;18.80;99.90
45837;DHT22;31548;51.420;-0.040;2022-10-17T13:39:39;18.90;99.90
45837;DHT22;31548;51.420;-0.040;2022-10-17T13:42:36;18.70;99.90
45837;DHT22;31548;51.420;-0.040;2022-10-17T13:45:15;18.70;99.90
45837;DHT22;31548;51.420;-0.040;2022-10-17T13:47:43;18.70;99.90
45837;DHT22;31548;51.420;-0.040;2022-10-17T13:50:25;18.90;99.90
45837;DHT22;31548;51.420;-0.040;2022-10-17T13:53:20;19.00;99.90
45837;DHT22;31548;51.420;-0.040;2022-10-17T13:56:02;19.30;99.90
45837;DHT22;31548;51.420;-0.040;2022-10-17T13:58:59;19.30;99.90
45837;DHT22;31548;51.420;-0.040;2022-10-17T14:01:28;19.30;99.90
45837;DHT22;31548;51.420;-0.040;2022-10-17T14:03:56;19.60;99.90
45837;DHT22;31548;51.420;-0.040;2022-10-17T14:06:41;19.60;99.90
45837;DHT22;31548;51.420;-0.040;2022-10-17T14:09:24;19.60;99.90
45837;DHT22;31548;51.420;-0.040;2022-10-17T14:12:06;19.40;99.90
45837;DHT22;31548;51.420;-0.040;2022-10-17T14:14:37;19.60;99.90
45837;DHT22;31548;51.420;-0.040;2022-10-17T14:17:27;19.30;99.90
45837;DHT22;31548;51.420;-0.040;2022-10-17T14:19:58;19.20;99.90
45837;DHT22;31548;51.420;-0.040;2022-10-17T14:22:50;19.00;99.90
45837;DHT22;31548;51.420;-0.040;2022-10-17T14:25:39;19.40;99.90
45837;DHT22;31548;51.420;-0.040;2022-10-17T14:30:43;19.90;99.90
45837;DHT22;31548;51.420;-0.040;2022-10-17T14:33:28;20.20;99.90
45837;DHT22;31548;51.420;-0.040;2022-10-17T14:35:57;20.30;99.90
45837;DHT22;31548;51.420;-0.040;2022-10-17T14:38:27;20.70;99.90
45837;DHT22;31548;51.420;-0.040;2022-10-17T14:43:41;21.40;99.90
45837;DHT22;31548;51.420;-0.040;2022-10-17T14:46:15;21.00;99.90
45837;DHT22;31548;51.420;-0.040;2022-10-17T14:48:43;21.00;99.90
45837;DHT22;31548;51.420;-0.040;2022-10-17T14:51:15;20.90;99.90
45837;DHT22;31548;51.420;-0.040;2022-10-17T14:53:59;20.50;99.90
45837;DHT22;31548;51.420;-0.040;2022-10-17T14:56:41;20.50;99.90
45837;DHT22;31548;51.420;-0.040;2022-10-17T14:59:09;20.20;99.90
45837;DHT22;31548;51.420;-0.040;2022-10-17T15:01:44;19.90;99.90
45837;DHT22;31548;51.420;-0.040;2022-10-17T15:04:11;19.90;99.90
45837;DHT22;31548;51.420;-0.040;2022-10-17T15:06:38;20.00;99.90
45837;DHT22;31548;51.420;-0.040;2022-10-17T15:09:06;20.20;99.90
45837;DHT22;31548;51.420;-0.040;2022-10-17T15:11:34;20.20;99.90
45837;DHT22;31548;51.420;-0.040;2022-10-17T15:14:01;20.00;99.90
45837;DHT22;31548;51.420;-0.040;2022-10-17T15:16:33;20.00;99.90
45837;DHT22;31548;51.420;-0.040;2022-10-17T15:19:00;19.90;99.90
45837;DHT22;31548;51.420;-0.040;2022-10-17T15:21:28;19.70;99.90
45837;DHT22;31548;51.420;-0.040;2022-10-17T15:24:13;19.70;99.90
45837;DHT22;31548;51.420;-0.040;2022-10-17T15:26:41;19.60;99.90
45837;DHT22;31548;51.420;-0.040;2022-10-17T15:29:13;19.50;99.90
45837;DHT22;31548;51.420;-0.040;2022-10-17T15:31:42;19.40;99.90
45837;DHT22;31548;51.420;-0.040;2022-10-17T15:34:09;19.50;99.90
45837;DHT22;31548;51.420;-0.040;2022-10-17T15:36:41;19.60;99.90
45837;DHT22;31548;51.420;-0.040;2022-10-17T15:39:14;19.70;99.90
45837;DHT22;31548;51.420;-0.040;2022-10-17T15:41:41;20.30;99.90
45837;DHT22;31548;51.420;-0.040;2022-10-17T15:44:08;20.90;99.90
45837;DHT22;31548;51.420;-0.040;2022-10-17T15:46:39;21.20;99.90
45837;DHT22;31548;51.420;-0.040;2022-10-17T15:49:11;21.40;99.90
45837;DHT22;31548;51.420;-0.040;2022-10-17T15:51:39;21.80;99.90
45837;DHT22;31548;51.420;-0.040;2022-10-17T15:54:07;21.70;99.90
45837;DHT22;31548;51.420;-0.040;2022-10-17T15:56:39;21.80;99.80
45837;DHT22;31548;51.420;-0.040;2022-10-17T15:59:15;21.60;99.50
45837;DHT22;31548;51.420;-0.040;2022-10-17T16:01:44;21.40;99.90
45837;DHT22;31548;51.420;-0.040;2022-10-17T16:04:11;21.00;99.90
45837;DHT22;31548;51.420;-0.040;2022-10-17T16:06:41;20.50;99.90
45837;DHT22;31548;51.420;-0.040;2022-10-17T16:09:09;20.30;99.90
45837;DHT22;31548;51.420;-0.040;2022-10-17T16:11:38;20.00;99.90
45837;DHT22;31548;51.420;-0.040;2022-10-17T16:14:12;19.70;99.90
45837;DHT22;31548;51.420;-0.040;2022-10-17T16:16:40;19.50;99.90
45837;DHT22;31548;51.420;-0.040;2022-10-17T16:19:07;19.30;99.90
45837;DHT22;31548;51.420;-0.040;2022-10-17T16:21:37;19.10;99.90
45837;DHT22;31548;51.420;-0.040;2022-10-17T16:24:05;18.80;99.90
45837;DHT22;31548;51.420;-0.040;2022-10-17T16:26:32;18.60;99.90
45837;DHT22;31548;51.420;-0.040;2022-10-17T16:29:00;18.60;99.90
45837;DHT22;31548;51.420;-0.040;2022-10-17T16:31:32;18.50;99.90
45837;DHT22;31548;51.420;-0.040;2022-10-17T16:34:01;18.40;99.90
45837;DHT22;31548;51.420;-0.040;2022-10-17T16:36:28;18.20;99.90
45837;DHT22;31548;51.420;-0.040;2022-10-17T16:38:56;18.20;99.90
45837;DHT22;31548;51.420;-0.040;2022-10-17T16:41:29;18.10;99.90
45837;DHT22;31548;51.420;-0.040;2022-10-17T16:43:58;18.00;99.90
45837;DHT22;31548;51.420;-0.040;2022-10-17T16:46:27;17.90;99.90
45837;DHT22;31548;51.420;-0.040;2022-10-17T16:48:55;17.60;99.90
45837;DHT22;31548;51.420;-0.040;2022-10-17T16:51:23;17.60;99.90
45837;DHT22;31548;51.420;-0.040;2022-10-17T16:53:52;17.50;99.90
45837;DHT22;31548;51.420;-0.040;2022-10-17T16:56:23;17.50;99.90
45837;DHT22;31548;51.420;-0.040;2022-10-17T16:58:50;17.50;99.90
45837;DHT22;31548;51.420;-0.040;2022-10-17T17:01:20;17.40;99.90
45837;DHT22;31548;51.420;-0.040;2022-10-17T17:03:49;17.40;99.90
45837;DHT22;31548;51.420;-0.040;2022-10-17T17:06:21;17.30;99.90
45837;DHT22;31548;51.420;-0.040;2022-10-17T17:08:50;17.20;99.90
45837;DHT22;31548;51.420;-0.040;2022-10-17T17:11:20;17.20;99.90
45837;DHT22;31548;51.420;-0.040;2022-10-17T17:13:47;17.10;99.90
45837;DHT22;31548;51.420;-0.040;2022-10-17T17:16:20;17.00;99.90
45837;DHT22;31548;51.420;-0.040;2022-10-17T17:18:56;16.90;99.90
45837;DHT22;31548;51.420;-0.040;2022-10-17T17:21:25;16.80;99.90
45837;DHT22;31548;51.420;-0.040;2022-10-17T17:23:54;16.80;99.90
45837;DHT22;31548;51.420;-0.040;2022-10-17T17:26:25;16.70;99.90
45837;DHT22;31548;51.420;-0.040;2022-10-17T17:28:55;16.60;99.90
45837;DHT22;31548;51.420;-0.040;2022-10-17T17:31:25;16.60;99.90
45837;DHT22;31548;51.420;-0.040;2022-10-17T17:33:53;16.50;99.90